Time;durP1;ratioP1;P1;durP2;ratioP2;P2;SDS_P1;SDS_P2;PMS_P1;PMS_P2;Temp;Humidity;BMP_temperature;BMP_pressure;BME280_temperature;BME280_humidity;BME280_pressure;Samples;Min_cycle;Max_cycle;Signal;HPM_P1;HPM_P2
2021/12/02 05:02:44;;;;;;;1.60;1.50;;;5.30;99.90;;;;;;4934716;29;20797;-77
2021/12/02 05:05:11;;;;;;;1.60;1.50;;;5.30;99.90;;;;;;4935686;29;20497;-78
2021/12/02 05:07:38;;;;;;;1.43;1.30;;;5.30;99.90;;;;;;4935323;29;20984;-78
2021/12/02 05:10:07;;;;;;;1.90;1.37;;;5.40;99.90;;;;;;4935962;29;20814;-78
2021/12/02 05:12:34;;;;;;;1.43;1.40;;;5.40;99.90;;;;;;4935687;29;20561;-77
2021/12/02 05:15:02;;;;;;;3.43;1.50;;;5.40;99.90;;;;;;4935246;29;20453;-79
2021/12/02 05:17:29;;;;;;;1.93;1.40;;;5.50;99.90;;;;;;4934615;29;20514;-78
2021/12/02 05:19:58;;;;;;;1.60;1.50;;;5.50;99.90;;;;;;4935323;29;20608;-79
2021/12/02 05:22:24;;;;;;;2.57;1.63;;;5.50;99.90;;;;;;4938491;29;20568;-78
2021/12/02 05:24:51;;;;;;;2.00;1.30;;;5.50;99.90;;;;;;4938461;29;20942;-78
2021/12/02 05:27:18;;;;;;;2.97;1.67;;;5.60;99.90;;;;;;4938235;29;20890;-79
2021/12/02 05:29:45;;;;;;;1.70;1.60;;;5.50;99.90;;;;;;4938437;29;20454;-79
2021/12/02 05:32:12;;;;;;;1.77;1.37;;;5.50;99.90;;;;;;4938619;29;20478;-69
2021/12/02 05:34:39;;;;;;;1.53;1.43;;;5.60;99.90;;;;;;4937944;29;20445;-68
2021/12/02 05:37:07;;;;;;;1.80;1.63;;;5.60;99.90;;;;;;4937755;29;20457;-69
2021/12/02 05:39:34;;;;;;;2.90;1.50;;;5.60;99.90;;;;;;4938262;29;20497;-68
2021/12/02 05:42:01;;;;;;;1.53;1.43;;;5.50;99.90;;;;;;4937991;29;20480;-70
2021/12/02 05:44:28;;;;;;;2.73;1.63;;;5.50;99.90;;;;;;4937809;29;20457;-72
2021/12/02 05:46:55;;;;;;;1.53;1.37;;;5.50;99.90;;;;;;4937590;29;20833;-74
2021/12/02 05:49:22;;;;;;;2.50;1.20;;;5.50;99.90;;;;;;4937599;29;20454;-74
2021/12/02 05:51:48;;;;;;;3.70;1.30;;;5.50;99.90;;;;;;4937868;29;20925;-74
2021/12/02 05:54:17;;;;;;;1.50;1.40;;;5.50;99.90;;;;;;4937508;29;20548;-73
2021/12/02 05:56:44;;;;;;;1.47;1.37;;;5.50;99.90;;;;;;4937463;29;21079;-74
2021/12/02 05:59:11;;;;;;;1.53;1.40;;;5.50;99.90;;;;;;4937651;29;20563;-74
2021/12/02 06:01:42;;;;;;;2.27;1.30;;;5.50;99.90;;;;;;4937357;29;20512;-74
2021/12/02 06:04:11;;;;;;;4.87;1.53;;;5.40;99.90;;;;;;4937578;29;21000;-73
2021/12/02 06:06:38;;;;;;;1.90;1.40;;;5.40;99.90;;;;;;4937332;29;20464;-73
2021/12/02 06:09:06;;;;;;;1.93;1.73;;;5.40;99.90;;;;;;4937386;29;20450;-74
2021/12/02 06:11:35;;;;;;;2.67;1.83;;;5.40;99.90;;;;;;4937259;29;20512;-73
2021/12/02 06:14:03;;;;;;;2.30;1.37;;;5.30;99.90;;;;;;4937387;29;20454;-72
2021/12/02 06:16:29;;;;;;;2.43;1.40;;;5.30;99.90;;;;;;4937150;29;20465;-72
2021/12/02 06:18:56;;;;;;;2.90;1.50;;;5.40;99.90;;;;;;4937261;29;20508;-72
2021/12/02 06:21:23;;;;;;;2.83;1.60;;;5.40;99.90;;;;;;4937161;29;20480;-72
2021/12/02 06:23:50;;;;;;;1.50;1.40;;;5.30;99.90;;;;;;4937095;29;20453;-73
2021/12/02 06:26:17;;;;;;;2.67;1.50;;;5.30;99.90;;;;;;4936977;29;20541;-73
2021/12/02 06:28:45;;;;;;;3.07;1.73;;;5.30;99.90;;;;;;4936869;29;20495;-73
2021/12/02 06:31:12;;;;;;;2.87;1.60;;;5.30;99.90;;;;;;4937045;29;20492;-73
2021/12/02 06:33:39;;;;;;;1.57;1.37;;;5.30;99.90;;;;;;4936991;29;20985;-74
2021/12/02 06:36:06;;;;;;;6.43;1.90;;;5.40;99.90;;;;;;4936738;29;21033;-73
2021/12/02 06:38:33;;;;;;;2.00;1.80;;;5.40;99.90;;;;;;4936891;29;20536;-74
2021/12/02 06:41:00;;;;;;;4.73;1.93;;;5.40;99.90;;;;;;4936709;29;20532;-74
2021/12/02 06:43:26;;;;;;;1.60;1.37;;;5.30;99.90;;;;;;4936309;29;20485;-73
2021/12/02 06:45:55;;;;;;;1.70;1.60;;;5.20;99.90;;;;;;4936081;29;20540;-74
2021/12/02 06:48:22;;;;;;;3.60;1.90;;;5.20;99.90;;;;;;4936529;29;20496;-73
2021/12/02 06:50:49;;;;;;;2.17;1.40;;;5.20;99.90;;;;;;4936568;29;20505;-73
2021/12/02 06:53:17;;;;;;;3.50;1.67;;;5.20;99.90;;;;;;4936580;29;20454;-73
2021/12/02 06:55:44;;;;;;;4.23;1.53;;;5.20;99.90;;;;;;4936307;29;20460;-74
2021/12/02 06:58:11;;;;;;;5.73;1.57;;;5.10;99.90;;;;;;4936492;29;20819;-73
2021/12/02 07:00:38;;;;;;;1.70;1.60;;;5.20;99.90;;;;;;4936452;29;20941;-74
2021/12/02 07:03:06;;;;;;;2.00;1.80;;;5.20;99.90;;;;;;4935801;29;20450;-73
2021/12/02 07:05:33;;;;;;;1.83;1.67;;;5.20;99.90;;;;;;4935209;29;20482;-73
2021/12/02 07:08:00;;;;;;;1.80;1.40;;;5.20;99.90;;;;;;4935379;29;21018;-74
2021/12/02 07:10:28;;;;;;;1.90;1.70;;;5.20;99.90;;;;;;4935163;29;20975;-73
2021/12/02 07:12:57;;;;;;;2.50;1.47;;;5.30;99.90;;;;;;4935355;29;20458;-73
2021/12/02 07:15:27;;;;;;;2.00;1.60;;;5.30;99.90;;;;;;4935432;29;20489;-73
2021/12/02 07:17:56;;;;;;;2.90;1.70;;;5.30;99.90;;;;;;4935233;29;20457;-73
2021/12/02 07:20:25;;;;;;;1.93;1.70;;;5.30;99.90;;;;;;4935212;29;20493;-73
2021/12/02 07:22:52;;;;;;;2.03;1.90;;;5.30;99.90;;;;;;4935136;29;20812;-74
2021/12/02 07:25:19;;;;;;;2.63;2.43;;;5.30;99.90;;;;;;4934972;29;20458;-74
2021/12/02 07:27:47;;;;;;;2.37;1.73;;;5.30;99.90;;;;;;4935178;29;20455;-73
2021/12/02 07:30:15;;;;;;;6.03;1.97;;;5.40;99.90;;;;;;4934987;29;20462;-74
2021/12/02 07:32:42;;;;;;;2.30;1.73;;;5.40;99.90;;;;;;4934868;29;20528;-73
2021/12/02 07:35:12;;;;;;;2.33;1.70;;;5.40;99.90;;;;;;4936225;29;20464;-73
2021/12/02 07:37:44;;;;;;;1.60;1.50;;;5.40;99.90;;;;;;4935521;29;20984;-73
2021/12/02 07:40:12;;;;;;;2.97;1.40;;;5.40;99.90;;;;;;4935778;29;20494;-74
2021/12/02 07:42:39;;;;;;;3.73;1.57;;;5.30;99.90;;;;;;4935135;29;20541;-73
2021/12/02 07:45:08;;;;;;;2.90;1.60;;;5.30;99.90;;;;;;4935824;29;20461;-74
2021/12/02 07:47:37;;;;;;;3.50;1.63;;;5.30;99.90;;;;;;4935481;29;20565;-73
2021/12/02 07:50:05;;;;;;;3.57;1.40;;;5.20;99.90;;;;;;4935315;29;20454;-73
2021/12/02 07:52:39;;;;;;;2.47;1.67;;;5.20;99.90;;;;;;4935349;29;20466;-73
2021/12/02 07:55:08;;;;;;;1.97;1.53;;;5.20;99.90;;;;;;4935628;29;20468;-73
2021/12/02 07:57:40;;;;;;;1.77;1.67;;;5.10;99.90;;;;;;4935499;29;20536;-73
2021/12/02 08:00:08;;;;;;;3.50;1.53;;;5.10;99.90;;;;;;4935536;29;20560;-74
2021/12/02 08:02:36;;;;;;;3.00;1.60;;;5.10;99.90;;;;;;4935162;29;21053;-73
2021/12/02 08:05:03;;;;;;;1.70;1.60;;;5.20;99.90;;;;;;4935397;29;20540;-74
2021/12/02 08:07:31;;;;;;;1.97;1.83;;;5.20;99.90;;;;;;4935374;29;20529;-73
2021/12/02 08:09:58;;;;;;;2.40;1.60;;;5.20;99.90;;;;;;4935352;29;20466;-73
2021/12/02 08:12:26;;;;;;;2.63;1.80;;;5.20;99.90;;;;;;4935312;29;21091;-73
2021/12/02 08:14:53;;;;;;;2.13;1.57;;;5.10;99.90;;;;;;4935413;29;20556;-74
2021/12/02 08:17:20;;;;;;;2.70;1.63;;;5.20;99.90;;;;;;4934989;29;20537;-72
2021/12/02 08:19:47;;;;;;;1.57;1.47;;;5.20;99.90;;;;;;4935061;29;20585;-73
2021/12/02 08:22:14;;;;;;;5.90;1.77;;;5.10;99.90;;;;;;4935201;29;20525;-74
2021/12/02 08:24:41;;;;;;;1.83;1.50;;;5.10;99.90;;;;;;4935133;29;20517;-74
2021/12/02 08:27:08;;;;;;;1.90;1.70;;;5.10;99.90;;;;;;4935050;29;20485;-74
2021/12/02 08:29:36;;;;;;;1.87;1.60;;;5.20;99.90;;;;;;4934952;29;20545;-74
2021/12/02 08:32:03;;;;;;;2.50;2.30;;;5.20;99.90;;;;;;4935100;29;20577;-73
2021/12/02 08:34:33;;;;;;;4.63;2.37;;;5.10;99.90;;;;;;4934933;29;20528;-73
2021/12/02 08:37:00;;;;;;;2.20;2.00;;;5.10;99.90;;;;;;4934996;29;20457;-73
2021/12/02 08:39:28;;;;;;;2.73;1.93;;;5.20;99.90;;;;;;4934870;29;20552;-73
2021/12/02 08:41:55;;;;;;;3.17;1.80;;;5.10;99.90;;;;;;4934924;29;20833;-74
2021/12/02 08:44:23;;;;;;;3.80;2.13;;;5.20;99.90;;;;;;4934598;29;20881;-74
2021/12/02 08:46:52;;;;;;;1.60;1.50;;;5.20;99.90;;;;;;4934947;29;20457;-74
2021/12/02 08:49:20;;;;;;;1.70;1.60;;;5.20;99.90;;;;;;4934676;29;20515;-73
2021/12/02 08:51:48;;;;;;;1.80;1.70;;;5.10;99.90;;;;;;4934525;29;20557;-75
2021/12/02 08:54:16;;;;;;;4.13;2.30;;;5.20;99.90;;;;;;4934337;29;20942;-75
2021/12/02 08:56:43;;;;;;;3.00;1.90;;;5.20;99.90;;;;;;4934434;29;20505;-73
2021/12/02 08:59:10;;;;;;;6.20;2.10;;;5.20;99.90;;;;;;4934624;29;21044;-75
2021/12/02 09:01:37;;;;;;;3.23;2.17;;;5.20;99.90;;;;;;4934397;29;20888;-74
2021/12/02 09:04:06;;;;;;;3.40;1.90;;;5.20;99.90;;;;;;4934854;29;20466;-74
2021/12/02 09:06:33;;;;;;;2.57;2.00;;;5.30;99.90;;;;;;4934389;29;20456;-74
2021/12/02 09:09:01;;;;;;;3.27;1.80;;;5.20;99.90;;;;;;4934717;29;20456;-74
2021/12/02 09:11:30;;;;;;;2.23;2.03;;;5.20;99.90;;;;;;4934344;29;20537;-73
2021/12/02 09:13:58;;;;;;;4.07;2.33;;;5.20;99.90;;;;;;4934814;29;20496;-73
2021/12/02 09:16:25;;;;;;;2.27;1.80;;;5.20;99.90;;;;;;4934599;29;20488;-73
2021/12/02 09:18:53;;;;;;;3.80;2.97;;;5.30;99.90;;;;;;4934649;29;20481;-76
2021/12/02 09:21:22;;;;;;;4.20;1.90;;;5.20;99.90;;;;;;4934397;29;20529;-73
2021/12/02 09:23:49;;;;;;;5.60;2.27;;;5.20;99.90;;;;;;4934268;29;20815;-73
2021/12/02 09:26:16;;;;;;;2.30;2.10;;;5.20;99.90;;;;;;4934206;29;20468;-74
2021/12/02 09:28:50;;;;;;;4.90;1.87;;;5.20;99.90;;;;;;4934654;29;20492;-73
2021/12/02 09:31:17;;;;;;;3.10;2.20;;;5.10;99.90;;;;;;4933886;29;20470;-73
2021/12/02 09:33:44;;;;;;;2.77;2.57;;;5.00;99.90;;;;;;4933894;29;20909;-74
2021/12/02 09:36:14;;;;;;;4.37;2.50;;;5.00;99.90;;;;;;4927117;29;20530;-74
2021/12/02 09:38:44;;;;;;;5.53;2.40;;;5.00;99.90;;;;;;4933590;29;20538;-74
2021/12/02 09:41:10;;;;;;;6.27;2.60;;;5.00;99.90;;;;;;4934105;29;20587;-74
2021/12/02 09:43:38;;;;;;;2.77;2.40;;;5.10;99.90;;;;;;4934844;29;20480;-73
2021/12/02 09:46:05;;;;;;;5.00;2.63;;;5.10;99.90;;;;;;4934040;29;20446;-74
2021/12/02 09:48:33;;;;;;;3.50;2.70;;;5.10;99.90;;;;;;4934349;29;20540;-74
2021/12/02 09:51:05;;;;;;;3.97;2.53;;;5.00;99.90;;;;;;4933974;29;20478;-73
2021/12/02 09:53:37;;;;;;;2.90;2.37;;;5.00;99.90;;;;;;4934560;29;20461;-75
2021/12/02 09:56:16;;;;;;;3.20;2.90;;;5.00;99.90;;;;;;4934203;29;20466;-74
2021/12/02 09:58:43;;;;;;;4.13;2.43;;;5.00;99.90;;;;;;4934158;29;20903;-75
2021/12/02 10:01:12;;;;;;;2.37;2.17;;;5.10;99.90;;;;;;4918310;29;20585;-74
2021/12/02 10:03:40;;;;;;;2.03;1.83;;;5.00;99.90;;;;;;4930507;29;20462;-75
2021/12/02 10:06:09;;;;;;;2.23;1.90;;;4.50;99.90;;;;;;4933291;29;20500;-74
2021/12/02 10:08:47;;;;;;;2.30;2.10;;;4.30;99.90;;;;;;4932075;29;20465;-74
2021/12/02 10:11:28;;;;;;;1.67;1.57;;;4.00;99.90;;;;;;4937520;29;20907;-74
2021/12/02 10:14:00;;;;;;;3.03;1.43;;;3.80;99.90;;;;;;4936321;29;21027;-73
2021/12/02 10:16:29;;;;;;;2.33;2.10;;;3.50;99.90;;;;;;4918236;29;20521;-74
2021/12/02 10:19:03;;;;;;;1.80;1.70;;;3.40;99.90;;;;;;4918594;29;20450;-73
2021/12/02 10:21:36;;;;;;;1.93;1.83;;;3.30;99.90;;;;;;4918407;29;20581;-73
2021/12/02 10:24:06;;;;;;;2.03;1.93;;;3.10;99.90;;;;;;4917979;29;20941;-74
2021/12/02 10:26:42;;;;;;;2.87;1.90;;;3.10;99.90;;;;;;4917976;29;20541;-72
2021/12/02 10:29:15;;;;;;;1.60;1.50;;;3.00;99.90;;;;;;4918437;29;20884;-75
2021/12/02 10:31:46;;;;;;;2.43;1.70;;;3.00;99.90;;;;;;4918006;29;20490;-74
2021/12/02 10:34:14;;;;;;;2.27;2.00;;;3.00;99.90;;;;;;4918142;29;20465;-73
2021/12/02 10:36:44;;;;;;;6.30;4.43;;;3.00;99.90;;;;;;4917779;29;20464;-74
2021/12/02 10:39:14;;;;;;;3.90;3.50;;;3.10;99.90;;;;;;4918259;29;20816;-74
2021/12/02 10:41:44;;;;;;;33.33;27.37;;;3.00;99.90;;;;;;4917862;29;20533;-74
2021/12/02 10:44:17;;;;;;;10.80;5.50;;;3.10;99.90;;;;;;4918090;29;20818;-73
2021/12/02 10:47:01;;;;;;;5.83;3.93;;;3.10;99.90;;;;;;4917743;29;20489;-74
2021/12/02 10:49:30;;;;;;;4.63;3.30;;;3.20;99.90;;;;;;4917634;29;20447;-74
2021/12/02 10:51:58;;;;;;;4.10;3.33;;;3.20;99.90;;;;;;4917971;29;20498;-74
2021/12/02 10:54:27;;;;;;;3.90;3.40;;;3.30;99.90;;;;;;4917879;29;20454;-73
2021/12/02 10:56:57;;;;;;;3.77;3.27;;;3.30;99.90;;;;;;4917588;29;20450;-74
2021/12/02 10:59:33;;;;;;;24.83;20.50;;;3.40;99.90;;;;;;4917703;29;20491;-74
2021/12/02 11:02:03;;;;;;;19.77;17.73;;;3.40;99.90;;;;;;4917439;29;20561;-73
2021/12/02 11:04:39;;;;;;;47.23;39.33;;;3.50;99.90;;;;;;4917718;29;20454;-74
2021/12/02 11:07:11;;;;;;;8.47;7.70;;;3.50;99.90;;;;;;4917522;29;20461;-73
2021/12/02 11:09:39;;;;;;;10.47;9.37;;;3.60;99.90;;;;;;4917223;29;20451;-73
2021/12/02 11:12:12;;;;;;;4.20;3.80;;;3.70;99.90;;;;;;4917157;29;20479;-73
2021/12/02 11:14:43;;;;;;;4.13;3.10;;;3.80;99.90;;;;;;4959596;23;20563;-75
2021/12/02 11:17:12;;;;;;;8.93;7.90;;;3.80;99.90;;;;;;4974689;28;20452;-75
2021/12/02 11:19:39;;;;;;;3.43;2.90;;;3.90;99.90;;;;;;4974774;28;20495;-75
2021/12/02 11:22:09;;;;;;;4.00;2.43;;;3.90;99.90;;;;;;4974107;28;20574;-75
2021/12/02 11:24:37;;;;;;;4.97;3.37;;;3.90;99.90;;;;;;4974202;28;21043;-76
2021/12/02 11:27:11;;;;;;;3.10;2.80;;;3.90;99.90;;;;;;4974456;28;20502;-74
2021/12/02 11:30:04;;;;;;;5.23;3.30;;;3.90;99.90;;;;;;4974689;28;20838;-75
2021/12/02 11:32:51;;;;;;;4.47;3.73;;;4.00;99.90;;;;;;4974499;28;20483;-74
2021/12/02 11:35:24;;;;;;;8.93;4.40;;;4.00;99.90;;;;;;4974155;28;20555;-74
2021/12/02 11:37:54;;;;;;;3.90;3.50;;;4.10;99.90;;;;;;4974426;28;20462;-74
2021/12/02 11:40:24;;;;;;;4.87;4.47;;;4.10;99.90;;;;;;4974298;28;20948;-73
2021/12/02 11:42:53;;;;;;;4.80;3.73;;;4.10;99.90;;;;;;4974408;28;20452;-74
2021/12/02 11:45:22;;;;;;;4.33;3.93;;;4.10;99.90;;;;;;4974114;28;20511;-74
2021/12/02 11:47:51;;;;;;;4.23;3.83;;;4.10;99.90;;;;;;4974439;28;21151;-74
2021/12/02 11:50:20;;;;;;;7.20;4.90;;;4.20;99.90;;;;;;4974143;28;20970;-74
2021/12/02 11:52:48;;;;;;;3.63;3.30;;;4.20;99.90;;;;;;4974276;28;20452;-76
2021/12/02 11:55:17;;;;;;;6.00;4.97;;;4.30;99.90;;;;;;4973530;28;20476;-74
2021/12/02 11:57:44;;;;;;;7.37;4.90;;;4.30;99.90;;;;;;4968438;28;20456;-75
2021/12/02 12:00:17;;;;;;;5.27;4.40;;;4.30;99.90;;;;;;4969410;28;21019;-74
2021/12/02 12:02:52;;;;;;;10.53;7.67;;;4.40;99.90;;;;;;4970575;28;20914;-73
2021/12/02 12:05:28;;;;;;;4.73;4.33;;;4.30;99.90;;;;;;4972984;28;20538;-75
2021/12/02 12:07:56;;;;;;;5.27;4.30;;;4.30;99.90;;;;;;4972647;28;20459;-75
2021/12/02 12:10:33;;;;;;;14.13;11.43;;;4.40;99.90;;;;;;4972478;28;20455;-75
2021/12/02 12:13:19;;;;;;;6.57;5.97;;;4.30;99.90;;;;;;4973120;28;20447;-74
2021/12/02 12:15:49;;;;;;;8.43;7.60;;;4.20;99.90;;;;;;4972215;28;20563;-74
2021/12/02 12:18:36;;;;;;;11.83;9.27;;;4.30;99.90;;;;;;4972454;28;20507;-74
2021/12/02 12:21:06;;;;;;;15.53;13.83;;;4.30;99.90;;;;;;4972385;28;20574;-74
2021/12/02 12:23:48;;;;;;;10.83;8.63;;;4.30;99.90;;;;;;4972738;28;20444;-74
2021/12/02 12:26:26;;;;;;;5.70;4.77;;;4.40;99.90;;;;;;4972450;28;20837;-74
2021/12/02 12:29:20;;;;;;;7.37;5.80;;;4.40;99.90;;;;;;4972138;28;20884;-74
2021/12/02 12:32:17;;;;;;;12.30;9.00;;;4.40;99.90;;;;;;4972501;28;20440;-76
2021/12/02 12:34:53;;;;;;;5.87;4.60;;;4.40;99.90;;;;;;4972405;28;20538;-74
2021/12/02 12:40:44;;;;;;;7.87;4.83;;;4.40;99.90;;;;;;4966471;28;20452;-77
2021/12/02 12:43:34;;;;;;;5.50;4.60;;;4.40;99.90;;;;;;4973039;28;20490;-74
2021/12/02 12:46:17;;;;;;;6.30;4.90;;;4.50;99.90;;;;;;4971470;28;20454;-74
2021/12/02 12:48:46;;;;;;;6.13;4.77;;;4.50;99.90;;;;;;4973553;28;20479;-74
2021/12/02 12:51:30;;;;;;;7.50;5.20;;;4.60;99.90;;;;;;4973581;28;20455;-74
2021/12/02 12:53:58;;;;;;;6.43;5.77;;;4.70;99.90;;;;;;4958174;28;21004;-74
2021/12/02 12:56:34;;;;;;;7.90;6.07;;;4.80;99.90;;;;;;4972840;28;20452;-74
2021/12/02 12:59:19;;;;;;;6.30;4.77;;;4.80;99.90;;;;;;4973383;28;20447;-77
2021/12/02 13:01:58;;;;;;;7.10;5.20;;;4.80;99.90;;;;;;4973220;28;20491;-74
2021/12/02 13:04:27;;;;;;;6.47;5.77;;;4.70;99.90;;;;;;4973075;28;20503;-74
2021/12/02 13:07:04;;;;;;;6.73;6.03;;;4.70;99.90;;;;;;4972766;28;20451;-74
2021/12/02 13:09:40;;;;;;;5.93;5.00;;;4.80;99.90;;;;;;4973260;28;20839;-74
2021/12/02 13:12:08;;;;;;;12.90;7.00;;;4.80;99.90;;;;;;4973247;28;20462;-74
2021/12/02 13:14:35;;;;;;;9.20;5.77;;;4.80;99.90;;;;;;4972690;28;20480;-74
2021/12/02 13:17:40;;;;;;;8.97;7.33;;;4.80;99.90;;;;;;4972384;28;20448;-75
2021/12/02 13:20:24;;;;;;;6.87;5.63;;;4.80;99.90;;;;;;4973072;28;20460;-75
2021/12/02 13:23:25;;;;;;;8.43;5.60;;;4.80;99.90;;;;;;4972951;28;20491;-74
2021/12/02 13:25:55;;;;;;;7.40;5.07;;;4.80;99.90;;;;;;4972887;28;20598;-74
2021/12/02 13:28:24;;;;;;;7.27;5.23;;;4.70;99.90;;;;;;4973058;28;20455;-75
2021/12/02 13:30:53;;;;;;;6.53;4.50;;;4.70;99.90;;;;;;4972951;28;20460;-74
2021/12/02 13:33:20;;;;;;;7.03;4.60;;;4.70;99.90;;;;;;4972901;28;20460;-74
2021/12/02 13:35:54;;;;;;;5.37;4.87;;;4.70;99.90;;;;;;4972358;28;20482;-75
2021/12/02 13:38:22;;;;;;;6.70;5.33;;;4.70;99.90;;;;;;4973031;28;20466;-75
2021/12/02 13:40:50;;;;;;;9.60;5.43;;;4.60;99.90;;;;;;4973809;28;20534;-74
2021/12/02 13:43:16;;;;;;;9.60;4.70;;;4.60;99.90;;;;;;4976534;28;20490;-75
2021/12/02 13:45:43;;;;;;;7.40;5.57;;;4.60;99.90;;;;;;4976200;28;20474;-69
2021/12/02 13:48:13;;;;;;;6.57;4.67;;;4.60;99.90;;;;;;4976434;28;20491;-71
2021/12/02 13:50:42;;;;;;;5.67;4.53;;;4.60;99.90;;;;;;4976192;28;20467;-69
2021/12/02 13:53:11;;;;;;;5.67;3.93;;;4.60;99.90;;;;;;4976232;28;20447;-69
2021/12/02 13:55:40;;;;;;;5.90;4.30;;;4.70;99.90;;;;;;4976200;28;20562;-75
2021/12/02 13:58:16;;;;;;;4.40;3.67;;;4.70;99.90;;;;;;4976136;28;20548;-75
2021/12/02 14:00:45;;;;;;;7.07;3.67;;;4.60;99.90;;;;;;4974517;28;20541;-77
2021/12/02 14:03:16;;;;;;;6.50;3.47;;;4.60;99.90;;;;;;4976251;28;20505;-76
2021/12/02 14:05:44;;;;;;;5.43;4.37;;;4.60;99.90;;;;;;4976021;28;20476;-75
2021/12/02 14:08:14;;;;;;;3.23;2.90;;;4.50;99.90;;;;;;4976203;28;20459;-75
2021/12/02 14:10:42;;;;;;;3.80;2.87;;;4.40;99.90;;;;;;4976320;28;20475;-75
2021/12/02 14:13:11;;;;;;;6.00;3.30;;;4.50;99.90;;;;;;4976951;28;20531;-75
2021/12/02 14:15:39;;;;;;;3.27;2.97;;;4.40;99.90;;;;;;4976228;28;20506;-75
2021/12/02 14:18:08;;;;;;;5.63;3.50;;;4.30;99.90;;;;;;4976603;28;21055;-76
2021/12/02 14:20:37;;;;;;;4.60;3.47;;;4.30;99.90;;;;;;4976125;28;20884;-75
2021/12/02 14:23:07;;;;;;;12.50;4.10;;;4.30;99.90;;;;;;4974915;28;20582;-75
2021/12/02 14:25:36;;;;;;;6.90;5.33;;;4.40;99.90;;;;;;4975906;28;20538;-75
2021/12/02 14:28:17;;;;;;;6.47;4.77;;;4.40;99.90;;;;;;4976368;28;20451;-75
2021/12/02 14:30:48;;;;;;;4.57;3.97;;;4.30;99.90;;;;;;4976577;28;20448;-75
2021/12/02 14:33:16;;;;;;;6.90;4.50;;;4.30;99.90;;;;;;4976974;28;20437;-75
2021/12/02 14:35:52;;;;;;;4.53;3.43;;;4.30;99.90;;;;;;4976306;28;21016;-75
2021/12/02 14:38:28;;;;;;;5.50;3.80;;;4.20;99.90;;;;;;4975703;28;20916;-75
2021/12/02 14:40:59;;;;;;;4.93;3.67;;;4.20;99.90;;;;;;4975057;28;20458;-75
2021/12/02 14:43:29;;;;;;;4.60;3.50;;;4.20;99.90;;;;;;4976058;28;20495;-75
2021/12/02 14:46:15;;;;;;;7.20;5.03;;;4.20;99.90;;;;;;4975817;28;20546;-75
2021/12/02 14:48:43;;;;;;;12.13;5.83;;;4.20;99.90;;;;;;4976113;28;20440;-75
2021/12/02 14:51:12;;;;;;;5.93;4.03;;;4.10;99.90;;;;;;4975617;28;20511;-77
2021/12/02 14:53:40;;;;;;;5.90;3.90;;;4.10;99.90;;;;;;4975597;28;20933;-74
2021/12/02 14:56:26;;;;;;;8.60;3.67;;;4.10;99.90;;;;;;4975481;28;20569;-73
2021/12/02 14:59:08;;;;;;;7.40;3.47;;;4.10;99.90;;;;;;4975414;28;20456;-74
2021/12/02 15:01:35;;;;;;;5.50;2.97;;;4.00;99.90;;;;;;4974972;28;20494;-74
2021/12/02 15:04:16;;;;;;;3.70;3.00;;;4.00;99.90;;;;;;4975500;28;20555;-74
2021/12/02 15:06:42;;;;;;;7.30;2.47;;;4.00;99.90;;;;;;4974774;28;20546;-74
2021/12/02 15:09:31;;;;;;;8.13;3.30;;;4.00;99.90;;;;;;4974903;28;20530;-74
2021/12/02 15:12:00;;;;;;;10.60;2.80;;;4.00;99.90;;;;;;4975232;28;20483;-73
2021/12/02 15:14:39;;;;;;;5.50;3.83;;;3.90;99.90;;;;;;4975284;28;20567;-68
2021/12/02 15:17:08;;;;;;;4.00;3.30;;;3.80;99.90;;;;;;4974803;28;20956;-69
2021/12/02 15:19:37;;;;;;;4.70;3.50;;;3.60;99.90;;;;;;4975534;28;20483;-69
2021/12/02 15:22:05;;;;;;;3.60;3.17;;;3.50;99.90;;;;;;4975116;28;20501;-74
2021/12/02 15:24:37;;;;;;;3.30;3.00;;;3.30;99.90;;;;;;4974726;28;20915;-74
2021/12/02 15:27:10;;;;;;;3.70;2.63;;;3.10;99.90;;;;;;4974698;28;20539;-75
2021/12/02 15:29:43;;;;;;;2.80;2.60;;;3.10;99.90;;;;;;4974926;28;20452;-74
2021/12/02 15:32:10;;;;;;;2.80;2.60;;;3.00;99.90;;;;;;4974700;28;20451;-74
2021/12/02 15:34:37;;;;;;;3.20;2.90;;;3.00;99.90;;;;;;4974464;28;20494;-74
2021/12/02 15:37:04;;;;;;;4.03;3.37;;;3.00;99.90;;;;;;4974278;28;20460;-74
2021/12/02 15:39:31;;;;;;;4.83;3.10;;;3.00;99.90;;;;;;4974830;28;20447;-74
2021/12/02 15:41:59;;;;;;;3.50;3.20;;;2.90;99.90;;;;;;4975235;28;20488;-74
2021/12/02 15:44:29;;;;;;;4.10;3.70;;;2.80;99.90;;;;;;4975182;28;20479;-74
2021/12/02 15:47:01;;;;;;;5.43;4.27;;;2.90;99.90;;;;;;4974493;28;20452;-68
2021/12/02 15:49:29;;;;;;;5.20;4.70;;;2.90;99.90;;;;;;4974239;28;20495;-68
2021/12/02 15:51:57;;;;;;;6.20;5.37;;;2.90;99.90;;;;;;4974426;28;20483;-68
2021/12/02 15:54:25;;;;;;;8.30;4.93;;;2.90;99.90;;;;;;4974266;28;20475;-68
2021/12/02 15:56:52;;;;;;;6.80;6.10;;;2.90;99.90;;;;;;4974104;28;20555;-68
2021/12/02 15:59:22;;;;;;;10.47;8.20;;;2.80;99.90;;;;;;4974000;28;20539;-68
2021/12/02 16:01:59;;;;;;;10.00;8.87;;;2.80;99.90;;;;;;4974054;28;20458;-68
2021/12/02 16:04:37;;;;;;;6.27;5.63;;;2.80;99.90;;;;;;4973707;28;20479;-74
2021/12/02 16:07:06;;;;;;;6.20;5.30;;;2.80;99.90;;;;;;4974180;28;20944;-74
2021/12/02 16:09:54;;;;;;;4.87;4.30;;;2.70;99.90;;;;;;4974460;28;20448;-74
2021/12/02 16:12:31;;;;;;;5.53;4.70;;;2.70;99.90;;;;;;4974354;28;20811;-74
2021/12/02 16:14:58;;;;;;;7.60;5.67;;;2.70;99.90;;;;;;4974474;28;21003;-74
2021/12/02 16:17:28;;;;;;;8.40;6.90;;;2.80;99.90;;;;;;4974510;28;20456;-75
2021/12/02 16:19:55;;;;;;;10.80;7.37;;;2.80;99.90;;;;;;4973752;28;21003;-69
2021/12/02 16:22:22;;;;;;;8.27;6.60;;;2.80;99.90;;;;;;4973628;28;20942;-74
2021/12/02 16:24:51;;;;;;;11.40;7.50;;;2.80;99.90;;;;;;4973233;28;20480;-76
2021/12/02 16:27:18;;;;;;;10.03;7.60;;;2.80;99.90;;;;;;4973445;28;20535;-75
2021/12/02 16:29:45;;;;;;;11.93;8.33;;;2.90;99.90;;;;;;4973327;28;20463;-75
2021/12/02 16:32:13;;;;;;;11.50;7.93;;;2.80;99.90;;;;;;4973487;28;20547;-73
2021/12/02 16:34:41;;;;;;;12.80;8.90;;;2.90;99.90;;;;;;4972374;28;20972;-73
2021/12/02 16:37:08;;;;;;;12.00;7.80;;;2.90;99.90;;;;;;4970394;28;20559;-75
2021/12/02 16:40:05;;;;;;;11.30;7.93;;;2.80;99.90;;;;;;4973264;28;20458;-66
2021/12/02 16:42:35;;;;;;;11.40;8.93;;;2.80;99.90;;;;;;4973385;28;20523;-75
2021/12/02 16:45:03;;;;;;;10.97;7.60;;;2.70;99.90;;;;;;4973254;28;20472;-76
2021/12/02 16:47:31;;;;;;;9.87;7.33;;;2.70;99.90;;;;;;4972871;28;20455;-75
2021/12/02 16:50:00;;;;;;;11.30;7.80;;;2.70;99.90;;;;;;4973091;28;20954;-76
2021/12/02 16:52:26;;;;;;;12.43;8.77;;;2.70;99.90;;;;;;4968896;28;20530;-75
2021/12/02 16:54:53;;;;;;;10.57;8.50;;;2.70;99.90;;;;;;4969879;28;20550;-75
2021/12/02 16:57:20;;;;;;;21.67;17.10;;;2.70;99.90;;;;;;4972483;28;20875;-75
2021/12/02 16:59:48;;;;;;;19.53;16.67;;;2.70;99.90;;;;;;4972698;28;20475;-75
2021/12/02 17:02:16;;;;;;;31.03;25.90;;;2.70;99.90;;;;;;4970154;28;20454;-75
2021/12/02 17:04:43;;;;;;;22.57;18.47;;;2.80;99.90;;;;;;4969341;28;20486;-75
2021/12/02 17:07:11;;;;;;;20.23;11.87;;;2.80;99.90;;;;;;4972642;28;20451;-75
2021/12/02 17:09:38;;;;;;;17.30;13.30;;;2.80;99.90;;;;;;4973240;28;20892;-75
2021/12/02 17:12:06;;;;;;;15.03;12.20;;;2.80;99.90;;;;;;4973087;28;20459;-75
2021/12/02 17:14:34;;;;;;;20.20;16.60;;;2.80;99.90;;;;;;4973727;28;20566;-75
2021/12/02 17:17:02;;;;;;;17.90;14.77;;;2.80;99.90;;;;;;4977230;28;20558;-75
2021/12/02 17:19:29;;;;;;;36.20;31.33;;;2.80;99.90;;;;;;4976950;28;21014;-75
2021/12/02 17:21:56;;;;;;;24.20;20.77;;;2.80;99.90;;;;;;4976406;28;20543;-75
2021/12/02 17:24:27;;;;;;;25.63;20.13;;;2.90;99.90;;;;;;4976716;28;20495;-75
2021/12/02 17:26:55;;;;;;;16.90;12.40;;;2.90;99.90;;;;;;4976851;28;20456;-75
2021/12/02 17:29:22;;;;;;;14.50;10.40;;;2.90;99.90;;;;;;4976666;28;20459;-75
2021/12/02 17:31:49;;;;;;;21.43;13.63;;;2.90;99.90;;;;;;4977218;28;20450;-75
2021/12/02 17:34:16;;;;;;;110.97;44.20;;;2.90;99.90;;;;;;4976900;28;20472;-75
2021/12/02 17:36:43;;;;;;;63.70;25.20;;;3.00;99.90;;;;;;4976613;28;20467;-76
2021/12/02 17:39:11;;;;;;;28.97;18.77;;;3.00;99.90;;;;;;4976640;28;20455;-75
2021/12/02 17:41:40;;;;;;;21.60;12.47;;;3.00;99.90;;;;;;4976481;28;20461;-76
2021/12/02 17:44:07;;;;;;;18.90;13.97;;;3.00;99.90;;;;;;4976318;28;20500;-76
2021/12/02 17:46:34;;;;;;;16.97;11.23;;;3.00;99.90;;;;;;4976416;28;20460;-76
2021/12/02 17:49:02;;;;;;;16.73;11.10;;;3.00;99.90;;;;;;4976675;28;20539;-76
2021/12/02 17:51:29;;;;;;;13.30;10.93;;;2.90;99.90;;;;;;4976470;28;20487;-75
2021/12/02 17:53:57;;;;;;;20.37;12.57;;;2.90;99.90;;;;;;4976246;28;20550;-76
2021/12/02 17:56:24;;;;;;;15.90;12.70;;;2.80;99.90;;;;;;4975954;28;20890;-75
2021/12/02 17:58:53;;;;;;;16.17;10.70;;;2.80;99.90;;;;;;4976230;28;20880;-76
2021/12/02 18:01:22;;;;;;;17.00;11.33;;;2.90;99.90;;;;;;4976398;28;20467;-76
2021/12/02 18:03:50;;;;;;;16.10;11.53;;;2.80;99.90;;;;;;4976037;28;21007;-76
2021/12/02 18:06:17;;;;;;;19.93;13.17;;;2.90;99.90;;;;;;4975889;28;20547;-75
2021/12/02 18:08:45;;;;;;;50.43;40.47;;;2.90;99.90;;;;;;4975807;28;20566;-75
2021/12/02 18:11:12;;;;;;;26.53;18.43;;;2.80;99.90;;;;;;4976247;28;20550;-75
2021/12/02 18:13:40;;;;;;;59.60;43.90;;;2.80;99.90;;;;;;4975742;28;20452;-75